createdAt,value
2023-02-14T00:01:04.494Z,1004.1
2023-02-14T00:03:05.872Z,1004
2023-02-14T00:05:07.585Z,1004
2023-02-14T00:07:08.828Z,1004
2023-02-14T00:09:10.701Z,1003.9
2023-02-14T00:11:12.275Z,1003.8
2023-02-14T00:13:13.430Z,1003.9
2023-02-14T00:15:15.463Z,1003.9
2023-02-14T00:17:17.357Z,1003.9
2023-02-14T00:21:19.946Z,1004
2023-02-14T00:23:21.284Z,1003.9
2023-02-14T00:25:23.252Z,1003.9
2023-02-14T00:27:25.028Z,1003.8
2023-02-14T00:31:27.439Z,1003.9
2023-02-14T00:33:29.063Z,1003.9
2023-02-14T00:35:30.955Z,1003.9
2023-02-14T00:37:32.923Z,1003.9
2023-02-14T00:39:34.059Z,1003.9
2023-02-14T00:41:35.798Z,1003.9
2023-02-14T00:43:37.353Z,1003.9
2023-02-14T00:45:38.723Z,1003.9
2023-02-14T00:47:40.302Z,1003.9
2023-02-14T00:49:42.017Z,1004
2023-02-14T00:51:43.709Z,1004
2023-02-14T00:53:44.932Z,1003.9
2023-02-14T00:55:46.570Z,1004
2023-02-14T00:57:48.405Z,1003.9
2023-02-14T00:59:49.932Z,1004
2023-02-14T01:01:51.200Z,1003.9
2023-02-14T01:03:52.355Z,1004
2023-02-14T01:05:53.859Z,1004
2023-02-14T01:07:55.529Z,1004
2023-02-14T01:09:56.641Z,1004
2023-02-14T01:11:57.971Z,1003.9
2023-02-14T01:13:59.774Z,1003.9
2023-02-14T01:16:01.379Z,1003.9
2023-02-14T01:20:03.728Z,1004
2023-02-14T01:22:05.600Z,1004
2023-02-14T01:24:07.263Z,1004
2023-02-14T01:26:08.548Z,1004
2023-02-14T01:28:10.309Z,1004
2023-02-14T01:30:11.759Z,1004
2023-02-14T01:32:13.604Z,1004
2023-02-14T01:34:15.333Z,1004
2023-02-14T01:36:16.494Z,1004
2023-02-14T01:38:17.788Z,1004.1
2023-02-14T01:40:19.116Z,1004.1
2023-02-14T01:42:20.365Z,1003.9
2023-02-14T01:43:04.303Z,1004
2023-02-14T01:45:06.158Z,1004.1
2023-02-14T01:47:07.491Z,1004.1
2023-02-14T01:49:09.305Z,1004
2023-02-14T01:51:11.109Z,1004.1
2023-02-14T01:53:13.077Z,1004
2023-02-14T01:57:16.348Z,1004
2023-02-14T01:59:18.167Z,1004.1
2023-02-14T02:01:19.729Z,1004
2023-02-14T02:03:20.784Z,1004
2023-02-14T02:05:22.092Z,1004
2023-02-14T02:07:23.830Z,1004
2023-02-14T02:09:24.859Z,1004
2023-02-14T02:11:26.053Z,1003.9
2023-02-14T02:13:27.673Z,1003.9
2023-02-14T02:15:28.980Z,1003.9
2023-02-14T02:17:30.386Z,1003.9
2023-02-14T02:19:32.223Z,1003.9
2023-02-14T02:21:33.673Z,1003.8
2023-02-14T02:23:34.745Z,1003.8
2023-02-14T02:25:36.253Z,1003.8
2023-02-14T02:27:38.271Z,1003.7
2023-02-14T02:29:40.136Z,1003.7
2023-02-14T02:31:42.045Z,1003.6
2023-02-14T02:33:43.234Z,1003.7
2023-02-14T02:35:45.179Z,1003.6
2023-02-14T02:39:48.482Z,1003.7
2023-02-14T02:41:50.106Z,1003.7
2023-02-14T02:43:52.051Z,1003.8
2023-02-14T02:45:53.255Z,1003.6
2023-02-14T02:47:54.875Z,1003.7
2023-02-14T02:49:56.724Z,1003.7
2023-02-14T02:51:58.091Z,1003.7
2023-02-14T02:53:59.190Z,1003.7
2023-02-14T02:56:01.084Z,1003.7
2023-02-14T02:58:02.619Z,1003.7
2023-02-14T03:00:04.381Z,1003.7
2023-02-14T03:02:05.667Z,1003.8
2023-02-14T03:04:06.916Z,1003.7
2023-02-14T03:06:08.764Z,1003.7
2023-02-14T03:08:10.676Z,1003.7
2023-02-14T03:10:12.449Z,1003.7
2023-02-14T03:12:14.417Z,1003.7
2023-02-14T03:14:15.806Z,1003.8
2023-02-14T03:16:17.134Z,1003.8
2023-02-14T03:18:18.326Z,1003.7
2023-02-14T03:20:19.531Z,1003.8
2023-02-14T03:22:21.192Z,1003.7
2023-02-14T03:24:22.786Z,1003.6
2023-02-14T03:26:24.679Z,1003.7
2023-02-14T03:28:26.090Z,1003.7
2023-02-14T03:30:27.346Z,1003.7
2023-02-14T03:32:28.881Z,1003.7
2023-02-14T03:34:30.463Z,1003.7
2023-02-14T03:38:33.967Z,1003.7
2023-02-14T03:40:35.134Z,1003.8
2023-02-14T03:42:36.709Z,1003.7
2023-02-14T03:44:38.366Z,1003.8
2023-02-14T03:46:40.398Z,1003.7
2023-02-14T03:48:41.706Z,1003.8
2023-02-14T03:50:43.672Z,1003.8
2023-02-14T03:52:44.752Z,1003.8
2023-02-14T03:54:46.471Z,1003.7
2023-02-14T03:56:48.021Z,1003.8
2023-02-14T03:58:49.180Z,1003.7
2023-02-14T04:00:50.769Z,1003.7
2023-02-14T04:02:52.010Z,1003.7
2023-02-14T04:04:53.630Z,1003.8
2023-02-14T04:06:55.057Z,1003.7
2023-02-14T04:08:56.843Z,1003.8
2023-02-14T04:10:58.958Z,1003.8
2023-02-14T04:12:59.924Z,1003.8
2023-02-14T04:15:01.197Z,1003.7
2023-02-14T04:17:02.585Z,1003.8
2023-02-14T04:21:05.547Z,1003.7
2023-02-14T04:23:06.974Z,1003.7
2023-02-14T04:25:08.826Z,1003.7
2023-02-14T04:27:10.293Z,1003.7
2023-02-14T04:29:11.681Z,1003.7
2023-02-14T04:31:13.405Z,1003.7
2023-02-14T04:33:14.827Z,1003.5
2023-02-14T04:35:16.151Z,1003.6
2023-02-14T04:37:17.501Z,1003.6
2023-02-14T04:39:19.394Z,1003.6
2023-02-14T04:41:21.393Z,1003.6
2023-02-14T04:43:31.100Z,1003.6
2023-02-14T04:45:24.629Z,1003.6
2023-02-14T04:47:26.287Z,1003.5
2023-02-14T04:49:27.563Z,1003.6
2023-02-14T04:51:28.883Z,1003.5
2023-02-14T04:53:30.403Z,1003.5
2023-02-14T04:55:32.272Z,1003.5
2023-02-14T04:57:34.148Z,1003.5
2023-02-14T04:59:35.697Z,1003.4
2023-02-14T05:01:37.294Z,1003.5
2023-02-14T05:03:39.127Z,1003.4
2023-02-14T05:05:40.452Z,1003.5
2023-02-14T05:07:42.038Z,1003.4
2023-02-14T05:09:43.113Z,1003.5
2023-02-14T05:11:44.317Z,1003.5
2023-02-14T05:13:45.805Z,1003.5
2023-02-14T05:15:47.413Z,1003.5
2023-02-14T05:17:48.903Z,1003.4
2023-02-14T05:19:50.236Z,1003.5
2023-02-14T05:21:51.541Z,1003.5
2023-02-14T05:23:52.850Z,1003.5
2023-02-14T05:25:54.749Z,1003.5
2023-02-14T05:29:57.605Z,1003.4
2023-02-14T05:31:58.739Z,1003.4
2023-02-14T05:34:00.135Z,1003.4
2023-02-14T05:36:01.331Z,1003.3
2023-02-14T05:40:04.170Z,1003.4
2023-02-14T05:42:05.966Z,1003.4
2023-02-14T05:44:07.640Z,1003.4
2023-02-14T05:46:09.036Z,1003.3
2023-02-14T05:48:10.207Z,1003.3
2023-02-14T05:50:11.837Z,1003.4
2023-02-14T05:52:13.322Z,1003.3
2023-02-14T05:54:15.159Z,1003.3
2023-02-14T05:56:17.000Z,1003.3
2023-02-14T05:58:18.950Z,1003.4
2023-02-14T06:00:20.027Z,1003.4
2023-02-14T06:02:21.349Z,1003.4
2023-02-14T06:04:23.066Z,1003.3
2023-02-14T06:06:24.879Z,1003.3
2023-02-14T06:08:26.079Z,1003.3
2023-02-14T06:10:27.545Z,1003.3
2023-02-14T06:12:29.194Z,1003.3
2023-02-14T06:14:30.990Z,1003.3
2023-02-14T06:16:32.214Z,1003.3
2023-02-14T06:18:33.517Z,1003.3
2023-02-14T06:20:34.689Z,1003.3
2023-02-14T06:22:35.968Z,1003.3
2023-02-14T06:24:37.034Z,1003.4
2023-02-14T06:26:38.788Z,1003.4
2023-02-14T06:28:40.648Z,1003.5
2023-02-14T06:30:41.922Z,1003.5
2023-02-14T06:32:43.073Z,1003.5
2023-02-14T06:34:45.092Z,1003.5
2023-02-14T06:36:46.180Z,1003.6
2023-02-14T06:38:48.080Z,1003.6
2023-02-14T06:40:49.869Z,1003.6
2023-02-14T06:42:51.500Z,1003.6
2023-02-14T06:44:53.343Z,1003.7
2023-02-14T06:46:55.127Z,1003.6
2023-02-14T06:48:56.460Z,1003.7
2023-02-14T06:50:58.755Z,1003.6
2023-02-14T06:52:59.950Z,1003.6
2023-02-14T06:55:01.658Z,1003.7
2023-02-14T06:57:02.833Z,1003.6
2023-02-14T06:59:04.264Z,1003.6
2023-02-14T07:01:05.670Z,1003.6
2023-02-14T07:03:07.253Z,1003.6
2023-02-14T07:05:08.860Z,1003.7
2023-02-14T07:07:10.298Z,1003.7
2023-02-14T07:11:13.267Z,1003.7
2023-02-14T07:13:15.001Z,1003.7
2023-02-14T07:15:16.944Z,1003.6
2023-02-14T07:17:18.900Z,1003.6
2023-02-14T07:19:20.388Z,1003.7
2023-02-14T07:21:22.404Z,1003.6
2023-02-14T07:23:24.149Z,1003.6
2023-02-14T07:25:25.540Z,1003.7
2023-02-14T07:27:26.687Z,1003.6
2023-02-14T07:29:28.254Z,1003.6
2023-02-14T07:31:29.528Z,1003.6
2023-02-14T07:33:31.094Z,1003.5
2023-02-14T07:35:32.493Z,1003.6
2023-02-14T07:37:33.604Z,1003.5
2023-02-14T07:39:35.487Z,1003.5
2023-02-14T07:41:36.816Z,1003.5
2023-02-14T07:43:38.598Z,1003.5
2023-02-14T07:45:39.693Z,1003.4
2023-02-14T07:47:40.999Z,1003.5
2023-02-14T07:49:42.481Z,1003.4
2023-02-14T07:51:43.522Z,1003.4
2023-02-14T07:53:44.915Z,1003.3
2023-02-14T07:55:46.078Z,1003.4
2023-02-14T07:57:48.061Z,1003.4
2023-02-14T07:59:49.306Z,1003.5
2023-02-14T08:01:50.495Z,1003.4
2023-02-14T08:03:52.448Z,1003.4
2023-02-14T08:05:53.583Z,1003.4
2023-02-14T08:09:56.597Z,1003.4
2023-02-14T08:11:58.053Z,1003.5
2023-02-14T08:13:59.354Z,1003.4
2023-02-14T08:16:01.288Z,1003.4
2023-02-14T08:18:03.148Z,1003.4
2023-02-14T08:20:04.833Z,1003.5
2023-02-14T08:22:06.006Z,1003.5
2023-02-14T08:24:07.774Z,1003.5
2023-02-14T08:26:09.033Z,1003.5
2023-02-14T08:28:10.591Z,1003.6
2023-02-14T08:30:56.243Z,1003.5
2023-02-14T08:32:57.942Z,1003.5
2023-02-14T08:34:59.720Z,1003.5
2023-02-14T08:37:01.442Z,1003.5
2023-02-14T08:39:02.987Z,1003.5
2023-02-14T08:41:07.675Z,1003.5
2023-02-14T08:43:06.112Z,1003.5
2023-02-14T08:47:08.352Z,1003.4
2023-02-14T08:49:10.236Z,1003.5
2023-02-14T08:51:11.281Z,1003.4
2023-02-14T08:53:12.738Z,1003.4
2023-02-14T08:55:14.627Z,1003.3
2023-02-14T08:57:16.323Z,1003.5
2023-02-14T08:59:17.863Z,1003.5
2023-02-14T09:01:19.390Z,1003.4
2023-02-14T09:03:20.983Z,1003.3
2023-02-14T09:05:22.023Z,1003.4
2023-02-14T09:07:23.393Z,1003.5
2023-02-14T09:09:24.617Z,1003.4
2023-02-14T09:11:26.386Z,1003.4
2023-02-14T09:13:28.265Z,1003.5
2023-02-14T09:15:29.656Z,1003.4
2023-02-14T09:17:30.866Z,1003.4
2023-02-14T09:19:32.179Z,1003.4
2023-02-14T09:21:33.598Z,1003.3
2023-02-14T09:23:35.354Z,1003.4
2023-02-14T09:25:37.205Z,1003.3
2023-02-14T09:29:40.800Z,1003.3
2023-02-14T09:31:42.062Z,1003.4
2023-02-14T09:33:43.259Z,1003.3
2023-02-14T09:35:44.385Z,1003.3
2023-02-14T09:37:45.949Z,1003.3
2023-02-14T09:39:47.639Z,1003.3
2023-02-14T09:41:49.240Z,1003.2
2023-02-14T09:43:51.134Z,1003.1
2023-02-14T09:45:52.902Z,1003.3
2023-02-14T09:47:53.985Z,1003.3
2023-02-14T09:49:55.145Z,1003.3
2023-02-14T09:51:57.046Z,1003.3
2023-02-14T09:56:00.231Z,1003.4
2023-02-14T09:58:11.213Z,1003.2
2023-02-14T10:00:03.325Z,1003.3
2023-02-14T10:02:04.865Z,1003.2
2023-02-14T10:04:05.885Z,1003.3
2023-02-14T10:06:07.613Z,1003.2
2023-02-14T10:08:09.163Z,1003.2
2023-02-14T10:10:10.254Z,1003.1
2023-02-14T10:12:11.308Z,1003.3
2023-02-14T10:14:12.332Z,1003.2
2023-02-14T10:16:14.145Z,1003.2
2023-02-14T10:18:15.231Z,1003.1
2023-02-14T10:20:16.703Z,1003.1
2023-02-14T10:22:18.599Z,1003.2
2023-02-14T10:24:20.133Z,1003.1
2023-02-14T10:26:21.728Z,1003.1
2023-02-14T10:28:22.852Z,1003.1
2023-02-14T10:30:25.014Z,1003.1
2023-02-14T10:32:26.095Z,1003.1
2023-02-14T10:34:27.982Z,1003.1
2023-02-14T10:36:29.586Z,1003.2
2023-02-14T10:38:30.765Z,1003.1
2023-02-14T10:40:32.263Z,1003.2
2023-02-14T10:42:34.057Z,1003.2
2023-02-14T10:44:35.809Z,1003.2
2023-02-14T10:48:38.622Z,1003.1
2023-02-14T10:50:40.422Z,1003
2023-02-14T10:52:42.053Z,1003
2023-02-14T10:54:42.990Z,1003
2023-02-14T10:56:44.225Z,1003
2023-02-14T10:58:46.086Z,1003
2023-02-14T11:00:47.121Z,1003
2023-02-14T11:02:48.301Z,1002.9
2023-02-14T11:04:50.214Z,1002.9
2023-02-14T11:06:51.184Z,1002.8
2023-02-14T11:08:52.721Z,1002.8
2023-02-14T11:10:53.899Z,1002.8
2023-02-14T11:12:55.395Z,1002.7
2023-02-14T11:14:56.503Z,1002.7
2023-02-14T11:16:58.518Z,1002.6
2023-02-14T11:18:59.791Z,1002.7
2023-02-14T11:21:01.086Z,1002.6
2023-02-14T11:23:02.323Z,1002.7
2023-02-14T11:25:04.712Z,1002.6
2023-02-14T11:27:05.494Z,1002.6
2023-02-14T11:29:06.499Z,1002.6
2023-02-14T11:31:07.530Z,1002.5
2023-02-14T11:33:08.459Z,1002.5
2023-02-14T11:35:09.483Z,1002.5
2023-02-14T11:37:11.024Z,1002.5
2023-02-14T11:39:12.533Z,1002.5
2023-02-14T11:41:13.734Z,1002.3
2023-02-14T11:43:15.501Z,1002.4
2023-02-14T11:45:16.770Z,1002.2
2023-02-14T11:47:18.125Z,1002.3
2023-02-14T11:49:19.630Z,1002.2
2023-02-14T11:53:22.518Z,1002.3
2023-02-14T11:55:24.275Z,1002.3
2023-02-14T11:57:25.938Z,1002.2
2023-02-14T11:59:27.327Z,1002.2
2023-02-14T12:01:28.575Z,1002.2
2023-02-14T12:03:32.337Z,1002.1
2023-02-14T12:05:31.539Z,1002.2
2023-02-14T12:07:33.252Z,1002.2
2023-02-14T12:09:34.504Z,1002.2
2023-02-14T12:11:35.617Z,1002
2023-02-14T12:13:36.664Z,1002.1
2023-02-14T12:15:38.166Z,1002
2023-02-14T12:19:41.173Z,1002
2023-02-14T12:21:42.657Z,1002
2023-02-14T12:23:43.794Z,1001.9
2023-02-14T12:25:45.648Z,1002
2023-02-14T12:29:49.029Z,1001.9
2023-02-14T12:31:50.236Z,1002
2023-02-14T12:34:01.009Z,1002
2023-02-14T12:35:53.659Z,1001.9
2023-02-14T12:39:55.926Z,1001.9
2023-02-14T12:41:57.780Z,1001.8
2023-02-14T12:43:58.764Z,1001.8
2023-02-14T12:46:00.551Z,1001.8
2023-02-14T12:48:01.993Z,1001.8
2023-02-14T12:50:03.859Z,1001.7
2023-02-14T12:52:04.838Z,1001.7
2023-02-14T12:54:06.293Z,1001.7
2023-02-14T12:56:07.996Z,1001.7
2023-02-14T12:58:09.234Z,1001.7
2023-02-14T13:00:11.017Z,1001.7
2023-02-14T13:02:12.249Z,1001.6
2023-02-14T13:04:14.130Z,1001.6
2023-02-14T13:06:15.167Z,1001.6
2023-02-14T13:08:16.495Z,1001.5
2023-02-14T13:10:18.041Z,1001.6
2023-02-14T13:12:20.323Z,1001.5
2023-02-14T13:14:21.121Z,1001.6
2023-02-14T13:18:23.275Z,1001.5
2023-02-14T13:20:25.140Z,1001.6
2023-02-14T13:22:26.144Z,1001.5
2023-02-14T13:24:27.481Z,1001.5
2023-02-14T13:26:36.367Z,1001.5
2023-02-14T13:28:30.424Z,1001.4
2023-02-14T13:30:32.375Z,1001.4
2023-02-14T13:32:33.980Z,1001.4
2023-02-14T13:34:35.868Z,1001.4
2023-02-14T13:36:36.933Z,1001.4
2023-02-14T13:38:38.823Z,1001.4
2023-02-14T13:40:39.917Z,1001.3
2023-02-14T13:42:41.752Z,1001.4
2023-02-14T13:44:43.420Z,1001.4
2023-02-14T13:46:44.473Z,1001.4
2023-02-14T13:48:46.208Z,1001.4
2023-02-14T13:50:47.378Z,1001.3
2023-02-14T13:52:48.457Z,1001.3
2023-02-14T13:54:49.864Z,1001.3
2023-02-14T13:56:51.716Z,1001.3
2023-02-14T13:58:52.714Z,1001.3
2023-02-14T14:00:53.911Z,1001.3
2023-02-14T14:02:55.594Z,1001.3
2023-02-14T14:04:57.339Z,1001.2
2023-02-14T14:06:58.341Z,1001.2
2023-02-14T14:08:59.699Z,1001.2
2023-02-14T14:11:00.874Z,1001.2
2023-02-14T14:13:02.888Z,1001.1
2023-02-14T14:17:04.924Z,1001.1
2023-02-14T14:19:06.657Z,1001.1
2023-02-14T14:21:07.667Z,1001.1
2023-02-14T14:23:08.965Z,1001.2
2023-02-14T14:25:10.364Z,1001.1
2023-02-14T14:27:11.504Z,1001.1
2023-02-14T14:29:12.894Z,1001.1
2023-02-14T14:31:14.764Z,1001.1
2023-02-14T14:33:16.399Z,1001.1
2023-02-14T14:35:17.423Z,1001
2023-02-14T14:37:18.808Z,1001.1
2023-02-14T14:39:21.337Z,1001
2023-02-14T14:41:22.397Z,1000.9
2023-02-14T14:43:23.657Z,1000.9
2023-02-14T14:45:25.291Z,1000.9
2023-02-14T14:47:26.771Z,1000.8
2023-02-14T14:49:28.604Z,1000.9
2023-02-14T14:51:29.851Z,1000.8
2023-02-14T14:53:31.567Z,1000.8
2023-02-14T14:55:33.399Z,1000.9
2023-02-14T14:57:34.515Z,1000.8
2023-02-14T14:59:36.331Z,1000.8
2023-02-14T15:01:37.483Z,1000.8
2023-02-14T15:03:39.069Z,1000.8
2023-02-14T15:05:40.572Z,1000.9
2023-02-14T15:07:41.934Z,1000.8
2023-02-14T15:09:44.461Z,1000.9
2023-02-14T15:11:45.197Z,1000.8
2023-02-14T15:13:46.332Z,1000.8
2023-02-14T15:14:30.205Z,1000.8
2023-02-14T15:16:32.013Z,1000.8
2023-02-14T15:20:34.679Z,1000.7
2023-02-14T15:22:36.106Z,1000.7
2023-02-14T15:24:37.477Z,1000.8
2023-02-14T15:26:38.630Z,1000.8
2023-02-14T15:30:41.832Z,1000.8
2023-02-14T15:32:43.602Z,1000.9
2023-02-14T15:34:45.271Z,1000.9
2023-02-14T15:36:46.319Z,1000.8
2023-02-14T15:38:48.091Z,1000.8
2023-02-14T15:40:49.786Z,1000.8
2023-02-14T15:42:51.099Z,1000.8
2023-02-14T15:44:52.099Z,1000.9
2023-02-14T15:46:53.364Z,1000.7
2023-02-14T15:48:54.951Z,1000.8
2023-02-14T15:50:56.452Z,1000.7
2023-02-14T15:52:57.798Z,1000.6
2023-02-14T15:54:58.880Z,1000.7
2023-02-14T15:57:00.167Z,1000.7
2023-02-14T15:59:01.992Z,1000.8
2023-02-14T16:01:03.619Z,1000.7
2023-02-14T16:03:05.057Z,1000.7
2023-02-14T16:05:06.989Z,1000.6
2023-02-14T16:07:08.230Z,1000.7
2023-02-14T16:09:09.459Z,1000.8
2023-02-14T16:11:10.794Z,1000.8
2023-02-14T16:13:12.504Z,1000.7
2023-02-14T16:15:14.443Z,1000.7
2023-02-14T16:19:17.988Z,1000.7
2023-02-14T16:21:19.788Z,1000.7
2023-02-14T16:23:21.057Z,1000.6
2023-02-14T16:25:22.685Z,1000.8
2023-02-14T16:27:24.327Z,1000.7
2023-02-14T16:29:26.173Z,1000.7
2023-02-14T16:31:28.220Z,1000.8
2023-02-14T16:35:31.355Z,1000.7
2023-02-14T16:37:32.338Z,1000.8
2023-02-14T16:39:33.419Z,1000.9
2023-02-14T16:41:35.016Z,1000.9
2023-02-14T16:45:38.278Z,1000.8
2023-02-14T16:47:40.219Z,1000.8
2023-02-14T16:49:41.616Z,1000.8
2023-02-14T16:51:43.221Z,1000.8
2023-02-14T16:53:44.554Z,1000.8
2023-02-14T16:55:45.564Z,1000.8
2023-02-14T16:57:47.554Z,1000.8
2023-02-14T16:59:48.810Z,1000.9
2023-02-14T17:01:50.457Z,1000.8
2023-02-14T17:03:52.075Z,1000.8
2023-02-14T17:05:53.849Z,1000.8
2023-02-14T17:07:55.722Z,1000.8
2023-02-14T17:09:57.041Z,1000.8
2023-02-14T17:11:58.060Z,1000.8
2023-02-14T17:13:59.576Z,1000.9
2023-02-14T17:16:00.721Z,1000.9
2023-02-14T17:18:01.792Z,1000.8
2023-02-14T17:20:03.012Z,1000.8
2023-02-14T17:22:04.798Z,1000.9
2023-02-14T17:24:05.832Z,1000.9
2023-02-14T17:26:07.496Z,1001
2023-02-14T17:28:08.798Z,1000.9
2023-02-14T17:30:10.584Z,1001
2023-02-14T17:34:12.972Z,1000.9
2023-02-14T17:36:14.843Z,1000.9
2023-02-14T17:38:16.297Z,1001
2023-02-14T17:40:17.351Z,1000.9
2023-02-14T17:42:19.218Z,1000.9
2023-02-14T17:44:20.898Z,1000.9
2023-02-14T17:46:22.065Z,1000.9
2023-02-14T17:48:23.837Z,1000.8
2023-02-14T17:50:33.344Z,1000.8
2023-02-14T17:52:26.387Z,1000.9
2023-02-14T17:54:27.799Z,1000.9
2023-02-14T17:56:29.609Z,1000.8
2023-02-14T17:58:31.272Z,1000.8
2023-02-14T18:00:32.984Z,1000.8
2023-02-14T18:02:34.964Z,1000.7
2023-02-14T18:04:36.169Z,1000.7
2023-02-14T18:06:37.888Z,1000.7
2023-02-14T18:08:39.302Z,1000.7
2023-02-14T18:10:40.446Z,1000.7
2023-02-14T18:12:41.536Z,1000.7
2023-02-14T18:14:42.809Z,1000.8
2023-02-14T18:16:44.127Z,1000.7
2023-02-14T18:18:45.705Z,1000.8
2023-02-14T18:20:46.737Z,1000.7
2023-02-14T18:22:48.339Z,1000.7
2023-02-14T18:24:50.148Z,1000.8
2023-02-14T18:26:51.901Z,1000.7
2023-02-14T18:28:53.776Z,1000.7
2023-02-14T18:32:56.361Z,1000.8
2023-02-14T18:34:58.008Z,1000.8
2023-02-14T18:36:59.958Z,1000.7
2023-02-14T18:39:01.469Z,1000.7
2023-02-14T18:41:03.549Z,1000.7
2023-02-14T18:43:04.832Z,1000.7
2023-02-14T18:45:06.523Z,1000.8
2023-02-14T18:47:08.265Z,1000.7
2023-02-14T18:49:09.808Z,1000.6
2023-02-14T18:51:11.746Z,1000.7
2023-02-14T18:53:13.685Z,1000.7
2023-02-14T18:55:15.460Z,1000.6
2023-02-14T18:57:16.900Z,1000.6
2023-02-14T18:59:18.077Z,1000.5
2023-02-14T19:01:19.640Z,1000.7
2023-02-14T19:03:20.785Z,1000.6
2023-02-14T19:05:22.075Z,1000.6
2023-02-14T19:07:23.534Z,1000.6
2023-02-14T19:11:26.398Z,1000.5
2023-02-14T19:13:28.067Z,1000.4
2023-02-14T19:15:29.460Z,1000.4
2023-02-14T19:17:31.427Z,1000.4
2023-02-14T19:19:32.575Z,1000.4
2023-02-14T19:21:33.645Z,1000.3
2023-02-14T19:23:34.845Z,1000.4
2023-02-14T19:25:36.586Z,1000.3
2023-02-14T19:27:38.608Z,1000.4
2023-02-14T19:29:39.665Z,1000.5
2023-02-14T19:31:41.237Z,1000.4
2023-02-14T19:33:43.005Z,1000.4
2023-02-14T19:35:44.700Z,1000.3
2023-02-14T19:37:45.871Z,1000.3
2023-02-14T19:39:47.807Z,1000.2
2023-02-14T19:41:48.722Z,1000.2
2023-02-14T19:43:50.070Z,1000.2
2023-02-14T19:45:52.075Z,1000.2
2023-02-14T19:47:53.125Z,1000.2
2023-02-14T19:49:54.102Z,1000.1
2023-02-14T19:51:55.776Z,1000.1
2023-02-14T19:53:57.456Z,1000
2023-02-14T19:55:58.578Z,1000.1
2023-02-14T19:58:00.379Z,1000
2023-02-14T20:00:01.823Z,1000
2023-02-14T20:02:03.355Z,1000
2023-02-14T20:04:04.960Z,1000.1
2023-02-14T20:06:06.100Z,1000
2023-02-14T20:08:07.392Z,1000.1
2023-02-14T20:10:08.906Z,1000
2023-02-14T20:12:10.507Z,1000
2023-02-14T20:14:12.018Z,1000
2023-02-14T20:16:13.080Z,1000.1
2023-02-14T20:18:14.864Z,1000.1
2023-02-14T20:20:16.847Z,1000
2023-02-14T20:24:19.915Z,1000
2023-02-14T20:26:21.830Z,1000
2023-02-14T20:28:23.414Z,1000
2023-02-14T20:30:25.461Z,999.9
2023-02-14T20:34:28.550Z,999.9
2023-02-14T20:36:30.179Z,999.9
2023-02-14T20:38:31.431Z,999.8
2023-02-14T20:40:32.772Z,999.9
2023-02-14T20:42:34.465Z,999.9
2023-02-14T20:44:36.098Z,999.9
2023-02-14T20:46:37.206Z,999.9
2023-02-14T20:48:38.273Z,999.9
2023-02-14T20:50:40.003Z,999.8
2023-02-14T20:52:41.254Z,999.8
2023-02-14T20:54:43.194Z,999.8
2023-02-14T20:56:44.579Z,999.8
2023-02-14T20:58:46.015Z,999.8
2023-02-14T21:00:47.589Z,999.7
2023-02-14T21:02:49.102Z,999.7
2023-02-14T21:04:50.689Z,999.7
2023-02-14T21:06:51.903Z,999.7
2023-02-14T21:08:53.297Z,999.7
2023-02-14T21:10:54.977Z,999.6
2023-02-14T21:12:56.374Z,999.6
2023-02-14T21:16:59.850Z,999.6
2023-02-14T21:19:01.502Z,999.5
2023-02-14T21:23:04.260Z,999.7
2023-02-14T21:25:06.009Z,999.7
2023-02-14T21:27:07.399Z,999.6
2023-02-14T21:29:08.763Z,999.6
2023-02-14T21:31:10.790Z,999.6
2023-02-14T21:33:12.380Z,999.7
2023-02-14T21:35:13.763Z,999.6
2023-02-14T21:37:15.595Z,999.6
2023-02-14T21:39:17.258Z,999.5
2023-02-14T21:41:18.973Z,999.5
2023-02-14T21:43:20.025Z,999.5
2023-02-14T21:45:21.600Z,999.5
2023-02-14T21:47:23.245Z,999.5
2023-02-14T21:49:24.761Z,999.3
2023-02-14T21:51:25.876Z,999.4
2023-02-14T21:53:27.537Z,999.4
2023-02-14T21:55:28.558Z,999.4
2023-02-14T21:57:29.808Z,999.3
2023-02-14T21:59:31.385Z,999.3
2023-02-14T22:00:15.259Z,999.3
2023-02-14T22:02:16.361Z,999.4
2023-02-14T22:04:18.351Z,999.2
2023-02-14T22:06:19.415Z,999.3
2023-02-14T22:08:20.855Z,999.2
2023-02-14T22:10:22.646Z,999.2
2023-02-14T22:12:23.902Z,999.2
2023-02-14T22:16:26.999Z,999.2
2023-02-14T22:18:28.755Z,999.2
2023-02-14T22:20:30.532Z,999.1
2023-02-14T22:22:32.109Z,999.2
2023-02-14T22:24:33.516Z,999.2
2023-02-14T22:26:34.882Z,999.2
2023-02-14T22:28:36.105Z,999.1
2023-02-14T22:30:38.021Z,999.2
2023-02-14T22:32:39.746Z,999.2
2023-02-14T22:34:41.403Z,999.2
2023-02-14T22:36:42.987Z,999.1
2023-02-14T22:38:44.884Z,999.1
2023-02-14T22:40:46.397Z,999.1
2023-02-14T22:42:47.766Z,999.1
2023-02-14T22:44:49.738Z,999.1
2023-02-14T22:46:51.265Z,999.1
2023-02-14T22:48:53.000Z,999
2023-02-14T22:50:54.211Z,999.1
2023-02-14T22:52:56.092Z,999
2023-02-14T22:54:57.445Z,999.1
2023-02-14T22:58:59.936Z,999.1
2023-02-14T23:01:01.393Z,999.1
2023-02-14T23:03:02.884Z,999
2023-02-14T23:05:04.167Z,999.1
2023-02-14T23:07:05.185Z,999
2023-02-14T23:09:06.238Z,999.1
2023-02-14T23:11:07.714Z,999.1
2023-02-14T23:13:08.976Z,999.1
2023-02-14T23:15:10.160Z,999.1
2023-02-14T23:17:11.383Z,999.1
2023-02-14T23:19:12.581Z,999
2023-02-14T23:21:13.825Z,999.1
2023-02-14T23:25:17.669Z,999
2023-02-14T23:27:19.469Z,999.1
2023-02-14T23:29:20.737Z,999.2
2023-02-14T23:31:22.451Z,999.1
2023-02-14T23:35:25.977Z,999.1
2023-02-14T23:37:27.277Z,999
2023-02-14T23:39:28.851Z,999
2023-02-14T23:41:30.634Z,999
2023-02-14T23:43:32.314Z,999
2023-02-14T23:45:33.528Z,999
2023-02-14T23:47:34.948Z,999.1
2023-02-14T23:49:36.363Z,999
2023-02-14T23:51:37.956Z,999
2023-02-14T23:53:39.587Z,999.1
2023-02-14T23:55:41.463Z,999
2023-02-14T23:57:43.169Z,999
2023-02-14T23:59:44.270Z,999
